sensor_id;sensor_type;location;lat;lon;timestamp;P1;durP1;ratioP1;P2;durP2;ratioP2
75191;SDS011;63771;52.580;9.734;2023-03-19T00:01:20;3.78;;;3.58;;
75191;SDS011;63771;52.580;9.734;2023-03-19T00:03:45;3.87;;;3.50;;
75191;SDS011;63771;52.580;9.734;2023-03-19T00:06:11;4.22;;;3.88;;
75191;SDS011;63771;52.580;9.734;2023-03-19T00:08:37;3.78;;;3.55;;
75191;SDS011;63771;52.580;9.734;2023-03-19T00:11:08;4.00;;;3.75;;
75191;SDS011;63771;52.580;9.734;2023-03-19T00:13:35;4.07;;;3.78;;
75191;SDS011;63771;52.580;9.734;2023-03-19T00:16:00;3.60;;;3.40;;
75191;SDS011;63771;52.580;9.734;2023-03-19T00:18:26;5.20;;;4.17;;
75191;SDS011;63771;52.580;9.734;2023-03-19T00:20:51;3.63;;;3.33;;
75191;SDS011;63771;52.580;9.734;2023-03-19T00:23:17;3.27;;;3.07;;
75191;SDS011;63771;52.580;9.734;2023-03-19T00:25:42;4.43;;;3.80;;
75191;SDS011;63771;52.580;9.734;2023-03-19T00:28:07;4.57;;;3.50;;
75191;SDS011;63771;52.580;9.734;2023-03-19T00:30:33;4.22;;;3.67;;
75191;SDS011;63771;52.580;9.734;2023-03-19T00:33:00;3.85;;;3.53;;
75191;SDS011;63771;52.580;9.734;2023-03-19T00:35:26;4.30;;;3.45;;
75191;SDS011;63771;52.580;9.734;2023-03-19T00:37:51;3.95;;;3.65;;
75191;SDS011;63771;52.580;9.734;2023-03-19T00:40:17;4.35;;;4.05;;
75191;SDS011;63771;52.580;9.734;2023-03-19T00:42:42;4.53;;;3.57;;
75191;SDS011;63771;52.580;9.734;2023-03-19T00:45:09;3.70;;;3.35;;
75191;SDS011;63771;52.580;9.734;2023-03-19T00:47:35;4.65;;;3.60;;
75191;SDS011;63771;52.580;9.734;2023-03-19T00:50:00;3.83;;;3.53;;
75191;SDS011;63771;52.580;9.734;2023-03-19T00:52:26;3.72;;;3.40;;
75191;SDS011;63771;52.580;9.734;2023-03-19T00:54:52;5.60;;;3.80;;
75191;SDS011;63771;52.580;9.734;2023-03-19T00:57:17;4.25;;;3.85;;
75191;SDS011;63771;52.580;9.734;2023-03-19T00:59:43;4.18;;;3.78;;
75191;SDS011;63771;52.580;9.734;2023-03-19T01:02:08;4.13;;;3.72;;
75191;SDS011;63771;52.580;9.734;2023-03-19T01:04:33;3.85;;;3.60;;
75191;SDS011;63771;52.580;9.734;2023-03-19T01:06:59;4.30;;;4.00;;
75191;SDS011;63771;52.580;9.734;2023-03-19T01:09:24;4.77;;;4.10;;
75191;SDS011;63771;52.580;9.734;2023-03-19T01:11:50;4.57;;;4.07;;
75191;SDS011;63771;52.580;9.734;2023-03-19T01:14:16;5.00;;;4.50;;
75191;SDS011;63771;52.580;9.734;2023-03-19T01:16:41;3.60;;;3.35;;
75191;SDS011;63771;52.580;9.734;2023-03-19T01:19:07;4.60;;;3.83;;
75191;SDS011;63771;52.580;9.734;2023-03-19T01:21:33;6.68;;;4.60;;
75191;SDS011;63771;52.580;9.734;2023-03-19T01:24:00;4.65;;;4.30;;
75191;SDS011;63771;52.580;9.734;2023-03-19T01:26:26;4.50;;;4.07;;
75191;SDS011;63771;52.580;9.734;2023-03-19T01:28:51;4.60;;;4.20;;
75191;SDS011;63771;52.580;9.734;2023-03-19T01:31:17;4.38;;;4.00;;
75191;SDS011;63771;52.580;9.734;2023-03-19T01:33:43;4.32;;;3.92;;
75191;SDS011;63771;52.580;9.734;2023-03-19T01:36:08;4.50;;;4.07;;
75191;SDS011;63771;52.580;9.734;2023-03-19T01:38:34;4.38;;;4.03;;
75191;SDS011;63771;52.580;9.734;2023-03-19T01:41:00;4.75;;;4.15;;
75191;SDS011;63771;52.580;9.734;2023-03-19T01:43:27;5.18;;;4.78;;
75191;SDS011;63771;52.580;9.734;2023-03-19T01:46:05;4.90;;;4.28;;
75191;SDS011;63771;52.580;9.734;2023-03-19T01:48:38;4.93;;;4.50;;
75191;SDS011;63771;52.580;9.734;2023-03-19T01:51:07;5.35;;;4.82;;
75191;SDS011;63771;52.580;9.734;2023-03-19T01:53:36;5.45;;;4.95;;
75191;SDS011;63771;52.580;9.734;2023-03-19T01:56:13;5.10;;;4.70;;
75191;SDS011;63771;52.580;9.734;2023-03-19T01:58:41;4.22;;;3.92;;
75191;SDS011;63771;52.580;9.734;2023-03-19T02:01:10;5.22;;;4.72;;
75191;SDS011;63771;52.580;9.734;2023-03-19T02:03:36;5.07;;;4.57;;
75191;SDS011;63771;52.580;9.734;2023-03-19T02:06:02;4.32;;;4.03;;
75191;SDS011;63771;52.580;9.734;2023-03-19T02:08:28;5.00;;;4.50;;
75191;SDS011;63771;52.580;9.734;2023-03-19T02:10:56;3.70;;;3.50;;
75191;SDS011;63771;52.580;9.734;2023-03-19T02:13:24;4.63;;;4.07;;
75191;SDS011;63771;52.580;9.734;2023-03-19T02:15:50;5.38;;;4.88;;
75191;SDS011;63771;52.580;9.734;2023-03-19T02:18:16;4.40;;;4.10;;
75191;SDS011;63771;52.580;9.734;2023-03-19T02:23:24;4.60;;;4.30;;
75191;SDS011;63771;52.580;9.734;2023-03-19T02:28:21;4.20;;;3.90;;
75191;SDS011;63771;52.580;9.734;2023-03-19T02:30:48;4.25;;;3.92;;
75191;SDS011;63771;52.580;9.734;2023-03-19T02:33:14;4.93;;;4.40;;
75191;SDS011;63771;52.580;9.734;2023-03-19T02:35:42;4.32;;;3.92;;
75191;SDS011;63771;52.580;9.734;2023-03-19T02:38:10;5.03;;;4.63;;
75191;SDS011;63771;52.580;9.734;2023-03-19T02:40:38;4.05;;;3.75;;
75191;SDS011;63771;52.580;9.734;2023-03-19T02:43:09;4.32;;;3.95;;
75191;SDS011;63771;52.580;9.734;2023-03-19T02:45:34;4.03;;;3.73;;
75191;SDS011;63771;52.580;9.734;2023-03-19T02:47:59;4.10;;;3.80;;
75191;SDS011;63771;52.580;9.734;2023-03-19T02:50:25;4.27;;;3.47;;
75191;SDS011;63771;52.580;9.734;2023-03-19T02:52:51;3.92;;;3.63;;
75191;SDS011;63771;52.580;9.734;2023-03-19T02:55:16;4.03;;;3.72;;
75191;SDS011;63771;52.580;9.734;2023-03-19T02:57:42;3.95;;;3.65;;
75191;SDS011;63771;52.580;9.734;2023-03-19T03:00:08;4.65;;;4.25;;
75191;SDS011;63771;52.580;9.734;2023-03-19T03:02:34;4.18;;;3.88;;
75191;SDS011;63771;52.580;9.734;2023-03-19T03:05:00;4.28;;;3.97;;
75191;SDS011;63771;52.580;9.734;2023-03-19T03:07:25;4.30;;;4.00;;
75191;SDS011;63771;52.580;9.734;2023-03-19T03:09:51;4.07;;;3.78;;
75191;SDS011;63771;52.580;9.734;2023-03-19T03:12:16;4.65;;;4.25;;
75191;SDS011;63771;52.580;9.734;2023-03-19T03:14:42;4.17;;;3.87;;
75191;SDS011;63771;52.580;9.734;2023-03-19T03:17:07;4.40;;;4.10;;
75191;SDS011;63771;52.580;9.734;2023-03-19T03:19:33;5.00;;;4.27;;
75191;SDS011;63771;52.580;9.734;2023-03-19T03:21:58;4.03;;;3.75;;
75191;SDS011;63771;52.580;9.734;2023-03-19T03:24:25;5.07;;;4.68;;
75191;SDS011;63771;52.580;9.734;2023-03-19T03:26:50;5.40;;;4.90;;
75191;SDS011;63771;52.580;9.734;2023-03-19T03:29:16;5.10;;;4.70;;
75191;SDS011;63771;52.580;9.734;2023-03-19T03:31:41;4.57;;;4.28;;
75191;SDS011;63771;52.580;9.734;2023-03-19T03:34:06;5.80;;;5.40;;
75191;SDS011;63771;52.580;9.734;2023-03-19T03:36:32;5.03;;;4.43;;
75191;SDS011;63771;52.580;9.734;2023-03-19T03:38:57;5.28;;;4.88;;
75191;SDS011;63771;52.580;9.734;2023-03-19T03:41:23;5.20;;;4.78;;
75191;SDS011;63771;52.580;9.734;2023-03-19T03:43:49;6.05;;;5.45;;
75191;SDS011;63771;52.580;9.734;2023-03-19T03:46:15;6.78;;;5.78;;
75191;SDS011;63771;52.580;9.734;2023-03-19T03:48:40;6.53;;;5.93;;
75191;SDS011;63771;52.580;9.734;2023-03-19T03:51:06;6.60;;;5.90;;
75191;SDS011;63771;52.580;9.734;2023-03-19T03:53:31;7.78;;;7.03;;
75191;SDS011;63771;52.580;9.734;2023-03-19T03:55:57;7.43;;;6.57;;
75191;SDS011;63771;52.580;9.734;2023-03-19T03:58:22;7.23;;;6.60;;
75191;SDS011;63771;52.580;9.734;2023-03-19T04:00:48;9.18;;;7.32;;
75191;SDS011;63771;52.580;9.734;2023-03-19T04:03:13;7.55;;;6.93;;
75191;SDS011;63771;52.580;9.734;2023-03-19T04:05:38;7.97;;;7.17;;
75191;SDS011;63771;52.580;9.734;2023-03-19T04:08:04;11.27;;;7.68;;
75191;SDS011;63771;52.580;9.734;2023-03-19T04:10:31;8.43;;;7.53;;
75191;SDS011;63771;52.580;9.734;2023-03-19T04:12:57;9.38;;;8.45;;
75191;SDS011;63771;52.580;9.734;2023-03-19T04:15:22;9.68;;;8.68;;
75191;SDS011;63771;52.580;9.734;2023-03-19T04:17:47;9.03;;;8.03;;
75191;SDS011;63771;52.580;9.734;2023-03-19T04:20:13;10.47;;;8.57;;
75191;SDS011;63771;52.580;9.734;2023-03-19T04:22:42;10.07;;;8.27;;
75191;SDS011;63771;52.580;9.734;2023-03-19T04:25:07;9.73;;;8.50;;
75191;SDS011;63771;52.580;9.734;2023-03-19T04:27:33;10.48;;;8.15;;
75191;SDS011;63771;52.580;9.734;2023-03-19T04:29:58;9.52;;;8.52;;
75191;SDS011;63771;52.580;9.734;2023-03-19T04:32:23;12.82;;;8.68;;
75191;SDS011;63771;52.580;9.734;2023-03-19T04:34:49;11.63;;;9.18;;
75191;SDS011;63771;52.580;9.734;2023-03-19T04:37:14;12.60;;;10.27;;
75191;SDS011;63771;52.580;9.734;2023-03-19T04:39:40;10.43;;;9.27;;
75191;SDS011;63771;52.580;9.734;2023-03-19T04:42:05;11.57;;;9.57;;
75191;SDS011;63771;52.580;9.734;2023-03-19T04:44:30;11.30;;;9.40;;
75191;SDS011;63771;52.580;9.734;2023-03-19T04:46:56;11.20;;;9.30;;
75191;SDS011;63771;52.580;9.734;2023-03-19T04:49:21;12.90;;;9.85;;
75191;SDS011;63771;52.580;9.734;2023-03-19T04:51:47;11.07;;;9.88;;
75191;SDS011;63771;52.580;9.734;2023-03-19T04:54:12;11.37;;;9.33;;
75191;SDS011;63771;52.580;9.734;2023-03-19T04:56:37;11.27;;;9.27;;
75191;SDS011;63771;52.580;9.734;2023-03-19T04:59:03;12.73;;;10.35;;
75191;SDS011;63771;52.580;9.734;2023-03-19T05:01:28;12.43;;;9.77;;
75191;SDS011;63771;52.580;9.734;2023-03-19T05:03:54;11.15;;;9.38;;
75191;SDS011;63771;52.580;9.734;2023-03-19T05:06:19;11.90;;;10.17;;
75191;SDS011;63771;52.580;9.734;2023-03-19T05:08:45;13.95;;;9.93;;
75191;SDS011;63771;52.580;9.734;2023-03-19T05:11:11;12.65;;;9.70;;
75191;SDS011;63771;52.580;9.734;2023-03-19T05:13:36;12.23;;;9.65;;
75191;SDS011;63771;52.580;9.734;2023-03-19T05:16:02;14.88;;;9.80;;
75191;SDS011;63771;52.580;9.734;2023-03-19T05:18:28;12.57;;;10.23;;
75191;SDS011;63771;52.580;9.734;2023-03-19T05:20:53;12.82;;;10.68;;
75191;SDS011;63771;52.580;9.734;2023-03-19T05:23:19;12.60;;;10.23;;
75191;SDS011;63771;52.580;9.734;2023-03-19T05:25:44;10.93;;;9.82;;
75191;SDS011;63771;52.580;9.734;2023-03-19T05:28:10;12.23;;;9.98;;
75191;SDS011;63771;52.580;9.734;2023-03-19T05:30:37;9.82;;;8.82;;
75191;SDS011;63771;52.580;9.734;2023-03-19T05:33:02;10.83;;;9.47;;
75191;SDS011;63771;52.580;9.734;2023-03-19T05:35:28;9.88;;;8.88;;
75191;SDS011;63771;52.580;9.734;2023-03-19T05:37:54;12.35;;;8.20;;
75191;SDS011;63771;52.580;9.734;2023-03-19T05:40:20;11.10;;;8.93;;
75191;SDS011;63771;52.580;9.734;2023-03-19T05:42:47;12.23;;;10.18;;
75191;SDS011;63771;52.580;9.734;2023-03-19T05:45:12;11.10;;;8.90;;
75191;SDS011;63771;52.580;9.734;2023-03-19T05:47:38;11.65;;;9.35;;
75191;SDS011;63771;52.580;9.734;2023-03-19T05:50:04;9.73;;;8.00;;
75191;SDS011;63771;52.580;9.734;2023-03-19T05:52:32;10.70;;;8.75;;
75191;SDS011;63771;52.580;9.734;2023-03-19T05:54:58;11.52;;;9.05;;
75191;SDS011;63771;52.580;9.734;2023-03-19T05:57:23;9.43;;;8.37;;
75191;SDS011;63771;52.580;9.734;2023-03-19T05:59:49;10.95;;;9.85;;
75191;SDS011;63771;52.580;9.734;2023-03-19T06:02:14;9.88;;;8.30;;
75191;SDS011;63771;52.580;9.734;2023-03-19T06:04:39;10.20;;;8.93;;
75191;SDS011;63771;52.580;9.734;2023-03-19T06:07:05;12.02;;;9.00;;
75191;SDS011;63771;52.580;9.734;2023-03-19T06:09:31;10.20;;;8.90;;
75191;SDS011;63771;52.580;9.734;2023-03-19T06:11:56;12.23;;;9.47;;
75191;SDS011;63771;52.580;9.734;2023-03-19T06:14:22;13.35;;;9.27;;
75191;SDS011;63771;52.580;9.734;2023-03-19T06:16:47;10.52;;;8.68;;
75191;SDS011;63771;52.580;9.734;2023-03-19T06:19:12;10.77;;;9.13;;
75191;SDS011;63771;52.580;9.734;2023-03-19T06:21:38;12.07;;;8.30;;
75191;SDS011;63771;52.580;9.734;2023-03-19T06:24:03;10.13;;;8.90;;
75191;SDS011;63771;52.580;9.734;2023-03-19T06:26:29;12.20;;;9.15;;
75191;SDS011;63771;52.580;9.734;2023-03-19T06:28:54;11.13;;;9.07;;
75191;SDS011;63771;52.580;9.734;2023-03-19T06:31:20;10.98;;;9.10;;
75191;SDS011;63771;52.580;9.734;2023-03-19T06:33:45;9.32;;;8.25;;
75191;SDS011;63771;52.580;9.734;2023-03-19T06:36:11;14.10;;;9.88;;
75191;SDS011;63771;52.580;9.734;2023-03-19T06:38:36;12.55;;;10.05;;
75191;SDS011;63771;52.580;9.734;2023-03-19T06:41:02;10.07;;;9.07;;
75191;SDS011;63771;52.580;9.734;2023-03-19T06:43:28;12.82;;;9.27;;
75191;SDS011;63771;52.580;9.734;2023-03-19T06:45:54;11.88;;;9.30;;
75191;SDS011;63771;52.580;9.734;2023-03-19T06:48:19;10.20;;;8.93;;
75191;SDS011;63771;52.580;9.734;2023-03-19T06:50:45;10.00;;;8.88;;
75191;SDS011;63771;52.580;9.734;2023-03-19T06:53:11;10.32;;;9.30;;
75191;SDS011;63771;52.580;9.734;2023-03-19T06:55:37;11.40;;;9.80;;
75191;SDS011;63771;52.580;9.734;2023-03-19T06:58:02;9.93;;;8.88;;
75191;SDS011;63771;52.580;9.734;2023-03-19T07:00:28;11.55;;;9.25;;
75191;SDS011;63771;52.580;9.734;2023-03-19T07:02:53;9.67;;;8.60;;
75191;SDS011;63771;52.580;9.734;2023-03-19T07:05:18;9.93;;;8.60;;
75191;SDS011;63771;52.580;9.734;2023-03-19T07:07:44;9.90;;;8.82;;
75191;SDS011;63771;52.580;9.734;2023-03-19T07:10:09;12.90;;;9.23;;
75191;SDS011;63771;52.580;9.734;2023-03-19T07:12:35;14.82;;;9.77;;
75191;SDS011;63771;52.580;9.734;2023-03-19T07:15:00;12.93;;;9.73;;
75191;SDS011;63771;52.580;9.734;2023-03-19T07:17:25;12.65;;;9.35;;
75191;SDS011;63771;52.580;9.734;2023-03-19T07:19:51;12.93;;;9.82;;
75191;SDS011;63771;52.580;9.734;2023-03-19T07:22:16;10.70;;;8.23;;
75191;SDS011;63771;52.580;9.734;2023-03-19T07:24:43;10.68;;;7.88;;
75191;SDS011;63771;52.580;9.734;2023-03-19T07:27:08;9.93;;;8.05;;
75191;SDS011;63771;52.580;9.734;2023-03-19T07:29:35;10.85;;;9.25;;
75191;SDS011;63771;52.580;9.734;2023-03-19T07:32:01;9.25;;;8.23;;
75191;SDS011;63771;52.580;9.734;2023-03-19T07:34:26;9.18;;;8.25;;
75191;SDS011;63771;52.580;9.734;2023-03-19T07:36:51;11.17;;;8.13;;
75191;SDS011;63771;52.580;9.734;2023-03-19T07:39:17;8.30;;;7.25;;
75191;SDS011;63771;52.580;9.734;2023-03-19T07:41:43;9.52;;;8.35;;
75191;SDS011;63771;52.580;9.734;2023-03-19T07:44:09;7.90;;;6.75;;
75191;SDS011;63771;52.580;9.734;2023-03-19T07:46:34;7.68;;;6.95;;
75191;SDS011;63771;52.580;9.734;2023-03-19T07:49:00;8.77;;;7.85;;
75191;SDS011;63771;52.580;9.734;2023-03-19T07:51:25;12.82;;;9.35;;
75191;SDS011;63771;52.580;9.734;2023-03-19T07:53:51;10.75;;;7.82;;
75191;SDS011;63771;52.580;9.734;2023-03-19T07:56:16;7.60;;;6.90;;
75191;SDS011;63771;52.580;9.734;2023-03-19T07:58:41;8.73;;;7.03;;
75191;SDS011;63771;52.580;9.734;2023-03-19T08:01:07;9.07;;;7.20;;
75191;SDS011;63771;52.580;9.734;2023-03-19T08:03:32;9.10;;;7.63;;
75191;SDS011;63771;52.580;9.734;2023-03-19T08:05:58;7.60;;;6.80;;
75191;SDS011;63771;52.580;9.734;2023-03-19T08:08:23;8.75;;;7.82;;
75191;SDS011;63771;52.580;9.734;2023-03-19T08:10:49;8.73;;;7.30;;
75191;SDS011;63771;52.580;9.734;2023-03-19T08:13:17;8.68;;;7.13;;
75191;SDS011;63771;52.580;9.734;2023-03-19T08:15:42;10.30;;;8.33;;
75191;SDS011;63771;52.580;9.734;2023-03-19T08:18:07;10.37;;;7.63;;
75191;SDS011;63771;52.580;9.734;2023-03-19T08:20:33;9.25;;;7.15;;
75191;SDS011;63771;52.580;9.734;2023-03-19T08:22:58;9.23;;;7.30;;
75191;SDS011;63771;52.580;9.734;2023-03-19T08:25:24;7.85;;;7.05;;
75191;SDS011;63771;52.580;9.734;2023-03-19T08:27:50;7.88;;;7.15;;
75191;SDS011;63771;52.580;9.734;2023-03-19T08:30:15;7.00;;;6.30;;
75191;SDS011;63771;52.580;9.734;2023-03-19T08:32:41;7.20;;;6.20;;
75191;SDS011;63771;52.580;9.734;2023-03-19T08:35:09;7.32;;;6.65;;
75191;SDS011;63771;52.580;9.734;2023-03-19T08:37:35;7.60;;;6.57;;
75191;SDS011;63771;52.580;9.734;2023-03-19T08:40:00;7.68;;;7.03;;
75191;SDS011;63771;52.580;9.734;2023-03-19T08:42:26;6.57;;;5.88;;
75191;SDS011;63771;52.580;9.734;2023-03-19T08:44:52;7.43;;;6.68;;
75191;SDS011;63771;52.580;9.734;2023-03-19T08:47:18;6.30;;;5.70;;
75191;SDS011;63771;52.580;9.734;2023-03-19T08:49:44;7.43;;;6.72;;
75191;SDS011;63771;52.580;9.734;2023-03-19T08:52:09;7.45;;;6.22;;
75191;SDS011;63771;52.580;9.734;2023-03-19T08:54:35;8.93;;;5.88;;
75191;SDS011;63771;52.580;9.734;2023-03-19T08:57:01;6.93;;;6.30;;
75191;SDS011;63771;52.580;9.734;2023-03-19T08:59:27;8.32;;;7.22;;
75191;SDS011;63771;52.580;9.734;2023-03-19T09:01:53;7.68;;;6.90;;
75191;SDS011;63771;52.580;9.734;2023-03-19T09:04:19;8.88;;;8.10;;
75191;SDS011;63771;52.580;9.734;2023-03-19T09:06:45;10.15;;;7.32;;
75191;SDS011;63771;52.580;9.734;2023-03-19T09:09:15;11.15;;;8.32;;
75191;SDS011;63771;52.580;9.734;2023-03-19T09:11:40;7.82;;;7.03;;
75191;SDS011;63771;52.580;9.734;2023-03-19T09:14:05;8.67;;;6.50;;
75191;SDS011;63771;52.580;9.734;2023-03-19T09:16:31;6.25;;;5.18;;
75191;SDS011;63771;52.580;9.734;2023-03-19T09:18:57;6.47;;;5.55;;
75191;SDS011;63771;52.580;9.734;2023-03-19T09:21:22;7.78;;;5.88;;
75191;SDS011;63771;52.580;9.734;2023-03-19T09:23:47;10.13;;;6.47;;
75191;SDS011;63771;52.580;9.734;2023-03-19T09:26:13;8.05;;;4.70;;
75191;SDS011;63771;52.580;9.734;2023-03-19T09:28:38;5.27;;;4.13;;
75191;SDS011;63771;52.580;9.734;2023-03-19T09:31:03;3.93;;;3.23;;
75191;SDS011;63771;52.580;9.734;2023-03-19T09:33:33;3.60;;;3.28;;
75191;SDS011;63771;52.580;9.734;2023-03-19T09:35:58;4.23;;;2.63;;
75191;SDS011;63771;52.580;9.734;2023-03-19T09:38:23;3.90;;;2.53;;
75191;SDS011;63771;52.580;9.734;2023-03-19T09:40:52;3.80;;;2.40;;
75191;SDS011;63771;52.580;9.734;2023-03-19T09:46:27;2.70;;;2.47;;
75191;SDS011;63771;52.580;9.734;2023-03-19T09:48:56;2.92;;;2.20;;
75191;SDS011;63771;52.580;9.734;2023-03-19T09:51:35;3.00;;;1.70;;
75191;SDS011;63771;52.580;9.734;2023-03-19T09:54:11;2.50;;;1.98;;
75191;SDS011;63771;52.580;9.734;2023-03-19T09:56:46;4.38;;;2.55;;
75191;SDS011;63771;52.580;9.734;2023-03-19T09:59:11;2.13;;;1.85;;
75191;SDS011;63771;52.580;9.734;2023-03-19T10:01:37;1.50;;;1.50;;
75191;SDS011;63771;52.580;9.734;2023-03-19T10:04:14;3.75;;;1.73;;
75191;SDS011;63771;52.580;9.734;2023-03-19T10:06:43;3.03;;;1.80;;
75191;SDS011;63771;52.580;9.734;2023-03-19T10:17:18;2.35;;;2.13;;
75191;SDS011;63771;52.580;9.734;2023-03-19T10:22:24;1.58;;;1.48;;
75191;SDS011;63771;52.580;9.734;2023-03-19T10:24:59;3.50;;;1.55;;
75191;SDS011;63771;52.580;9.734;2023-03-19T10:27:26;3.63;;;2.35;;
75191;SDS011;63771;52.580;9.734;2023-03-19T10:29:55;2.92;;;2.03;;
75191;SDS011;63771;52.580;9.734;2023-03-19T10:35:05;1.92;;;1.83;;
75191;SDS011;63771;52.580;9.734;2023-03-19T10:37:40;3.42;;;1.75;;
75191;SDS011;63771;52.580;9.734;2023-03-19T10:40:05;2.10;;;2.00;;
75191;SDS011;63771;52.580;9.734;2023-03-19T10:42:46;5.05;;;2.05;;
75191;SDS011;63771;52.580;9.734;2023-03-19T10:45:32;2.95;;;1.73;;
75191;SDS011;63771;52.580;9.734;2023-03-19T10:48:00;2.03;;;1.92;;
75191;SDS011;63771;52.580;9.734;2023-03-19T10:53:35;3.00;;;2.75;;
75191;SDS011;63771;52.580;9.734;2023-03-19T10:58:30;4.70;;;2.40;;
75191;SDS011;63771;52.580;9.734;2023-03-19T11:00:58;2.00;;;1.75;;
75191;SDS011;63771;52.580;9.734;2023-03-19T11:06:23;3.47;;;2.20;;
75191;SDS011;63771;52.580;9.734;2023-03-19T11:11:45;2.85;;;2.08;;
75191;SDS011;63771;52.580;9.734;2023-03-19T11:14:15;4.03;;;2.42;;
75191;SDS011;63771;52.580;9.734;2023-03-19T11:16:57;13.57;;;2.92;;
75191;SDS011;63771;52.580;9.734;2023-03-19T11:19:29;3.33;;;2.13;;
75191;SDS011;63771;52.580;9.734;2023-03-19T11:22:01;2.55;;;2.28;;
75191;SDS011;63771;52.580;9.734;2023-03-19T11:24:36;3.00;;;2.15;;
75191;SDS011;63771;52.580;9.734;2023-03-19T11:27:04;2.60;;;2.40;;
75191;SDS011;63771;52.580;9.734;2023-03-19T11:29:30;2.63;;;2.10;;
75191;SDS011;63771;52.580;9.734;2023-03-19T11:32:13;2.85;;;2.08;;
75191;SDS011;63771;52.580;9.734;2023-03-19T11:34:53;2.05;;;1.95;;
75191;SDS011;63771;52.580;9.734;2023-03-19T11:40:20;2.10;;;2.00;;
75191;SDS011;63771;52.580;9.734;2023-03-19T11:45:59;1.98;;;1.88;;
75191;SDS011;63771;52.580;9.734;2023-03-19T11:56:30;2.72;;;2.30;;
75191;SDS011;63771;52.580;9.734;2023-03-19T12:09:22;4.10;;;1.92;;
75191;SDS011;63771;52.580;9.734;2023-03-19T12:17:28;3.08;;;2.13;;
75191;SDS011;63771;52.580;9.734;2023-03-19T12:28:12;1.67;;;1.58;;
75191;SDS011;63771;52.580;9.734;2023-03-19T12:30:48;2.38;;;2.20;;
75191;SDS011;63771;52.580;9.734;2023-03-19T12:33:22;2.92;;;1.70;;
75191;SDS011;63771;52.580;9.734;2023-03-19T12:35:56;1.98;;;1.77;;
75191;SDS011;63771;52.580;9.734;2023-03-19T12:41:09;4.43;;;2.78;;
75191;SDS011;63771;52.580;9.734;2023-03-19T12:43:47;4.05;;;2.58;;
75191;SDS011;63771;52.580;9.734;2023-03-19T12:46:42;5.03;;;2.05;;
75191;SDS011;63771;52.580;9.734;2023-03-19T12:49:18;11.68;;;5.95;;
75191;SDS011;63771;52.580;9.734;2023-03-19T12:51:48;3.60;;;1.92;;
75191;SDS011;63771;52.580;9.734;2023-03-19T12:54:23;3.97;;;3.55;;
75191;SDS011;63771;52.580;9.734;2023-03-19T12:56:56;2.45;;;2.25;;
75191;SDS011;63771;52.580;9.734;2023-03-19T12:59:36;3.53;;;1.98;;
75191;SDS011;63771;52.580;9.734;2023-03-19T13:05:10;4.75;;;3.05;;
75191;SDS011;63771;52.580;9.734;2023-03-19T13:10:27;2.00;;;1.77;;
75191;SDS011;63771;52.580;9.734;2023-03-19T13:12:55;2.25;;;1.88;;
75191;SDS011;63771;52.580;9.734;2023-03-19T13:15:32;3.47;;;2.05;;
75191;SDS011;63771;52.580;9.734;2023-03-19T13:21:12;5.63;;;2.67;;
75191;SDS011;63771;52.580;9.734;2023-03-19T13:23:44;3.53;;;1.83;;
75191;SDS011;63771;52.580;9.734;2023-03-19T13:26:12;2.47;;;2.10;;
75191;SDS011;63771;52.580;9.734;2023-03-19T13:31:43;2.60;;;2.40;;
75191;SDS011;63771;52.580;9.734;2023-03-19T13:36:41;2.83;;;2.40;;
75191;SDS011;63771;52.580;9.734;2023-03-19T13:39:17;3.20;;;2.78;;
75191;SDS011;63771;52.580;9.734;2023-03-19T13:41:52;3.08;;;2.88;;
75191;SDS011;63771;52.580;9.734;2023-03-19T13:44:32;5.68;;;3.00;;
75191;SDS011;63771;52.580;9.734;2023-03-19T13:54:59;4.43;;;3.57;;
75191;SDS011;63771;52.580;9.734;2023-03-19T13:58:14;3.90;;;3.55;;
75191;SDS011;63771;52.580;9.734;2023-03-19T14:01:04;3.47;;;3.20;;
75191;SDS011;63771;52.580;9.734;2023-03-19T14:03:34;4.38;;;3.95;;
75191;SDS011;63771;52.580;9.734;2023-03-19T14:06:01;7.47;;;3.20;;
75191;SDS011;63771;52.580;9.734;2023-03-19T14:08:41;4.05;;;3.75;;
75191;SDS011;63771;52.580;9.734;2023-03-19T14:11:19;3.90;;;3.53;;
75191;SDS011;63771;52.580;9.734;2023-03-19T14:13:47;4.53;;;4.15;;
75191;SDS011;63771;52.580;9.734;2023-03-19T14:16:23;3.20;;;2.92;;
75191;SDS011;63771;52.580;9.734;2023-03-19T14:18:50;3.53;;;2.78;;
75191;SDS011;63771;52.580;9.734;2023-03-19T14:21:42;3.67;;;3.38;;
75191;SDS011;63771;52.580;9.734;2023-03-19T14:26:53;3.42;;;2.72;;
75191;SDS011;63771;52.580;9.734;2023-03-19T14:29:25;4.18;;;3.65;;
75191;SDS011;63771;52.580;9.734;2023-03-19T14:31:51;3.10;;;2.85;;
75191;SDS011;63771;52.580;9.734;2023-03-19T14:37:07;4.45;;;2.88;;
75191;SDS011;63771;52.580;9.734;2023-03-19T14:39:51;3.90;;;2.80;;
75191;SDS011;63771;52.580;9.734;2023-03-19T14:42:24;3.00;;;2.67;;
75191;SDS011;63771;52.580;9.734;2023-03-19T14:45:04;3.10;;;2.80;;
75191;SDS011;63771;52.580;9.734;2023-03-19T14:47:45;3.33;;;3.13;;
75191;SDS011;63771;52.580;9.734;2023-03-19T14:50:30;4.10;;;3.08;;
75191;SDS011;63771;52.580;9.734;2023-03-19T14:53:16;3.80;;;3.28;;
75191;SDS011;63771;52.580;9.734;2023-03-19T14:55:49;4.63;;;3.30;;
75191;SDS011;63771;52.580;9.734;2023-03-19T14:58:17;4.10;;;3.80;;
75191;SDS011;63771;52.580;9.734;2023-03-19T15:00:44;4.18;;;3.33;;
75191;SDS011;63771;52.580;9.734;2023-03-19T15:05:57;5.88;;;3.58;;
75191;SDS011;63771;52.580;9.734;2023-03-19T15:08:24;4.25;;;3.88;;
75191;SDS011;63771;52.580;9.734;2023-03-19T15:14:10;3.35;;;3.10;;
75191;SDS011;63771;52.580;9.734;2023-03-19T15:19:24;3.80;;;3.40;;
75191;SDS011;63771;52.580;9.734;2023-03-19T15:22:02;3.22;;;3.03;;
75191;SDS011;63771;52.580;9.734;2023-03-19T15:24:37;3.65;;;3.35;;
75191;SDS011;63771;52.580;9.734;2023-03-19T15:27:14;3.97;;;3.30;;
75191;SDS011;63771;52.580;9.734;2023-03-19T15:32:09;5.63;;;4.07;;
75191;SDS011;63771;52.580;9.734;2023-03-19T15:34:34;5.72;;;4.40;;
75191;SDS011;63771;52.580;9.734;2023-03-19T15:37:02;4.47;;;4.07;;
75191;SDS011;63771;52.580;9.734;2023-03-19T15:39:34;3.90;;;3.60;;
75191;SDS011;63771;52.580;9.734;2023-03-19T15:42:02;4.47;;;3.97;;
75191;SDS011;63771;52.580;9.734;2023-03-19T15:45:02;4.85;;;3.95;;
75191;SDS011;63771;52.580;9.734;2023-03-19T15:47:24;5.78;;;4.25;;
75191;SDS011;63771;52.580;9.734;2023-03-19T15:49:57;6.07;;;5.13;;
75191;SDS011;63771;52.580;9.734;2023-03-19T15:52:26;5.93;;;4.70;;
75191;SDS011;63771;52.580;9.734;2023-03-19T15:54:56;4.95;;;4.45;;
75191;SDS011;63771;52.580;9.734;2023-03-19T15:57:24;5.15;;;4.75;;
75191;SDS011;63771;52.580;9.734;2023-03-19T15:59:55;7.45;;;4.82;;
75191;SDS011;63771;52.580;9.734;2023-03-19T16:02:28;6.60;;;5.05;;
75191;SDS011;63771;52.580;9.734;2023-03-19T16:04:55;5.80;;;5.20;;
75191;SDS011;63771;52.580;9.734;2023-03-19T16:07:24;7.03;;;6.32;;
75191;SDS011;63771;52.580;9.734;2023-03-19T16:09:59;7.55;;;5.55;;
75191;SDS011;63771;52.580;9.734;2023-03-19T16:12:43;7.15;;;6.18;;
75191;SDS011;63771;52.580;9.734;2023-03-19T16:15:19;7.45;;;6.38;;
75191;SDS011;63771;52.580;9.734;2023-03-19T16:21:01;8.30;;;6.00;;
75191;SDS011;63771;52.580;9.734;2023-03-19T16:24:03;6.95;;;6.25;;
75191;SDS011;63771;52.580;9.734;2023-03-19T16:26:37;11.25;;;7.32;;
75191;SDS011;63771;52.580;9.734;2023-03-19T16:31:39;7.97;;;5.47;;
75191;SDS011;63771;52.580;9.734;2023-03-19T16:34:16;9.82;;;7.20;;
75191;SDS011;63771;52.580;9.734;2023-03-19T16:36:47;8.65;;;6.80;;
75191;SDS011;63771;52.580;9.734;2023-03-19T16:39:22;7.13;;;5.97;;
75191;SDS011;63771;52.580;9.734;2023-03-19T16:44:39;7.63;;;6.88;;
75191;SDS011;63771;52.580;9.734;2023-03-19T16:47:09;7.45;;;6.40;;
75191;SDS011;63771;52.580;9.734;2023-03-19T16:49:36;7.82;;;6.82;;
75191;SDS011;63771;52.580;9.734;2023-03-19T16:52:01;7.53;;;6.82;;
75191;SDS011;63771;52.580;9.734;2023-03-19T16:54:28;9.90;;;7.68;;